createdAt,value
2022-12-20T00:01:48.297Z,17.9
2022-12-20T00:21:47.590Z,17.8
2022-12-20T00:42:10.324Z,17.7
2022-12-20T01:01:48.846Z,17.7
2022-12-20T01:22:10.092Z,17.6
2022-12-20T01:41:57.735Z,17.6
2022-12-20T02:02:10.416Z,17.5
2022-12-20T02:21:46.958Z,17.5
2022-12-20T02:41:47.698Z,17.4
2022-12-20T03:02:10.364Z,17.3
2022-12-20T03:21:47.384Z,17.2
2022-12-20T03:42:10.160Z,17.1
2022-12-20T04:01:48.549Z,17.1
2022-12-20T04:22:10.414Z,17
2022-12-20T04:41:49.287Z,17
2022-12-20T05:02:31.605Z,16.9
2022-12-20T05:21:48.627Z,16.9
2022-12-20T05:41:47.813Z,17
2022-12-20T06:02:10.241Z,17.2
2022-12-20T06:21:47.182Z,17.3
2022-12-20T06:42:09.711Z,17.3
2022-12-20T07:02:09.977Z,17.3
2022-12-20T07:22:09.775Z,17.3
2022-12-20T07:42:10.144Z,17.3
2022-12-20T08:01:47.913Z,17.3
2022-12-20T08:21:47.563Z,17.3
2022-12-20T08:41:47.850Z,17.4
2022-12-20T09:01:48.315Z,17.4
2022-12-20T09:21:47.309Z,17.5
2022-12-20T09:41:48.013Z,17.6
2022-12-20T10:02:35.339Z,17.7
2022-12-20T10:21:47.681Z,17.7
2022-12-20T10:42:32.434Z,17.7
2022-12-20T11:01:47.357Z,17.9
2022-12-20T11:22:10.715Z,18.2
2022-12-20T11:42:10.395Z,18.2
2022-12-20T12:02:09.750Z,18.2
2022-12-20T12:22:09.478Z,18.2
2022-12-20T12:41:47.748Z,18.2
2022-12-20T13:01:47.767Z,18.2
2022-12-20T13:22:31.556Z,18.2
2022-12-20T13:41:47.260Z,18.2
2022-12-20T14:02:32.788Z,18.2
2022-12-20T14:21:48.454Z,18.2
2022-12-20T14:42:09.898Z,18.1
2022-12-20T15:01:47.398Z,18.1
2022-12-20T15:21:47.268Z,18
2022-12-20T15:42:09.494Z,18
2022-12-20T16:02:10.214Z,17.9
2022-12-20T16:21:47.599Z,17.9
2022-12-20T16:42:09.693Z,17.9
2022-12-20T17:02:10.528Z,17.9
2022-12-20T17:24:19.530Z,17.9
2022-12-20T17:41:47.967Z,17.9
2022-12-20T18:02:13.258Z,17.9
2022-12-20T18:21:47.418Z,18.1
2022-12-20T18:42:10.467Z,18.2
2022-12-20T19:02:10.034Z,18.5
2022-12-20T19:21:47.456Z,19
2022-12-20T19:42:31.281Z,19.3
2022-12-20T20:02:10.106Z,19.6
2022-12-20T20:22:09.701Z,19.6
2022-12-20T20:41:47.464Z,19.7
2022-12-20T21:02:09.660Z,19.8
2022-12-20T21:21:47.651Z,19.8
2022-12-20T21:42:09.057Z,19.7
2022-12-20T22:01:49.587Z,19.6
2022-12-20T22:22:11.295Z,19.6
2022-12-20T22:42:31.510Z,19.5
2022-12-20T23:01:58.108Z,19.5
2022-12-20T23:21:47.379Z,19.4
2022-12-20T23:42:32.217Z,19.3
